Skip Navigation Links Skip Navigation Links

Current Weather

Tan-Tan, Morocco

For information only: do not use for flight planning or navigation.
Latest weather
Observation time Sunday, December 17, 2017 6:00 PM WET
Local time Sunday, December 17, 2017 11:05 PM WET
Flight conditions Marginal Visual Meteorological Conditions
Winds
Wind direction North (360°)
Wind speed 18 mph
Visibility 6.2 mi.
Sky condition
Ceiling 1,600 ft. broken clouds
Cloud layer broken clouds 1,600 ft.
Temperature 59°F
Dewpoint 57°F
Altimeter 30.09 in.Hg
Derived measurements
Relative humidity 94%
Density altitude 257 ft.
Remarks
No significant changes expected in the next two hours.
METAR GMAT 171800Z 36016KT 9999 BKN016 15/14 Q1019 NOSIG

Settings

Location code

InnerDrive.Weather 4.0.6144.1 Release CLR 4.0.30319.36366
Copyright ©2015 Inner Drive Technology. All rights reserved. Portions Copyright ©1986-2015 David Braverman.

Find weather

Site navigation


Skip Navigation Links

Place info

Page info

PayPal - The safer, easier way to pay online!

Return home.

Copyright ©2017 Inner Drive Technology. Purveyors of fine, hand-crafted computer software. Page printed 2017-12-17T23:05:23 UTC.